createdAt,value
2023-05-07T00:03:35.464Z,55.56
2023-05-07T00:06:04.835Z,55.71
2023-05-07T00:08:36.305Z,55.88
2023-05-07T00:11:04.625Z,55.88
2023-05-07T00:13:33.373Z,55.53
2023-05-07T00:16:05.160Z,55.71
2023-05-07T00:18:33.904Z,55.57
2023-05-07T00:21:04.757Z,55.42
2023-05-07T00:23:33.402Z,55.17
2023-05-07T00:26:01.389Z,55.00
2023-05-07T00:28:29.498Z,54.72
2023-05-07T00:30:57.721Z,54.63
2023-05-07T00:33:25.880Z,54.46
2023-05-07T00:35:54.737Z,54.31
2023-05-07T00:38:23.088Z,54.28
2023-05-07T00:40:51.131Z,54.16
2023-05-07T00:43:21.679Z,54.18
2023-05-07T00:45:50.072Z,54.08
2023-05-07T00:48:19.896Z,54.16
2023-05-07T00:50:49.374Z,54.25
2023-05-07T00:53:18.580Z,54.25
2023-05-07T00:55:47.414Z,54.37
2023-05-07T00:58:16.156Z,54.38
2023-05-07T01:00:45.116Z,54.28
2023-05-07T01:03:15.014Z,54.10
2023-05-07T01:05:47.179Z,54.09
2023-05-07T01:08:17.840Z,53.86
2023-05-07T01:10:47.722Z,53.81
2023-05-07T01:13:17.247Z,53.87
2023-05-07T01:15:45.506Z,53.79
2023-05-07T01:18:15.088Z,53.48
2023-05-07T01:20:43.806Z,53.25
2023-05-07T01:23:13.646Z,52.85
2023-05-07T01:25:43.074Z,52.84
2023-05-07T01:28:12.111Z,52.74
2023-05-07T01:30:46.246Z,52.65
2023-05-07T01:33:19.944Z,52.46
2023-05-07T01:35:54.656Z,52.26
2023-05-07T01:38:24.667Z,51.95
2023-05-07T01:40:53.862Z,51.89
2023-05-07T01:43:23.035Z,51.66
2023-05-07T01:45:51.264Z,51.39
2023-05-07T01:48:21.079Z,51.33
2023-05-07T01:50:50.546Z,51.38
2023-05-07T01:53:18.672Z,51.43
2023-05-07T01:55:46.893Z,51.30
2023-05-07T01:58:17.015Z,51.12
2023-05-07T02:00:45.199Z,51.27
2023-05-07T02:03:16.603Z,51.18
2023-05-07T02:05:45.612Z,51.14
2023-05-07T02:08:14.880Z,50.83
2023-05-07T02:10:43.372Z,50.95
2023-05-07T02:13:12.196Z,51.01
2023-05-07T02:15:41.424Z,51.63
2023-05-07T02:18:09.710Z,51.99
2023-05-07T02:20:38.157Z,52.12
2023-05-07T02:23:07.245Z,51.92
2023-05-07T02:25:36.423Z,51.78
2023-05-07T02:28:05.492Z,51.90
2023-05-07T02:30:33.974Z,51.75
2023-05-07T02:33:02.222Z,51.70
2023-05-07T02:35:31.306Z,51.60
2023-05-07T02:37:59.831Z,51.30
2023-05-07T02:40:28.640Z,51.04
2023-05-07T02:42:56.937Z,50.92
2023-05-07T02:45:25.702Z,50.80
2023-05-07T02:47:53.962Z,50.29
2023-05-07T02:50:23.145Z,50.24
2023-05-07T02:52:51.175Z,50.32
2023-05-07T02:55:19.832Z,50.10
2023-05-07T02:57:48.622Z,49.61
2023-05-07T03:00:19.382Z,49.75
2023-05-07T03:02:48.204Z,49.81
2023-05-07T03:05:17.611Z,49.71
2023-05-07T03:07:46.266Z,49.20
2023-05-07T03:10:14.441Z,49.16
2023-05-07T03:12:43.095Z,49.35
2023-05-07T03:15:12.029Z,49.25
2023-05-07T03:17:40.297Z,48.74
2023-05-07T03:20:11.116Z,48.69
2023-05-07T03:22:40.529Z,49.03
2023-05-07T03:25:10.812Z,49.89
2023-05-07T03:27:40.149Z,50.29
2023-05-07T03:30:10.544Z,50.49
2023-05-07T03:32:39.474Z,50.81
2023-05-07T03:35:09.196Z,50.82
2023-05-07T03:37:39.746Z,50.94
2023-05-07T03:40:12.341Z,51.01
2023-05-07T03:42:40.928Z,51.15
2023-05-07T03:45:10.643Z,51.05
2023-05-07T03:47:39.207Z,51.05
2023-05-07T03:50:08.336Z,51.98
2023-05-07T03:52:37.199Z,53.79
2023-05-07T03:55:07.030Z,54.62
2023-05-07T03:57:35.372Z,54.95
2023-05-07T04:00:04.593Z,55.55
2023-05-07T04:02:34.548Z,56.13
2023-05-07T04:05:03.546Z,56.22
2023-05-07T04:07:32.901Z,57.16
2023-05-07T04:10:02.636Z,58.03
2023-05-07T04:12:31.202Z,59.60
2023-05-07T04:14:59.317Z,60.77
2023-05-07T04:17:27.574Z,61.02
2023-05-07T04:19:55.831Z,61.49
2023-05-07T04:22:24.801Z,62.51
2023-05-07T04:24:53.002Z,62.94
2023-05-07T04:27:22.596Z,64.12
2023-05-07T04:29:50.885Z,65.14
2023-05-07T04:32:19.411Z,65.95
2023-05-07T04:34:49.471Z,65.75
2023-05-07T04:37:18.928Z,65.33
2023-05-07T04:39:47.360Z,64.86
2023-05-07T04:42:17.609Z,64.41
2023-05-07T04:44:46.707Z,64.06
2023-05-07T04:47:15.968Z,63.59
2023-05-07T04:49:45.672Z,63.38
2023-05-07T04:52:14.355Z,63.18
2023-05-07T04:54:42.588Z,63.11
2023-05-07T04:57:11.123Z,62.95
2023-05-07T04:59:41.455Z,62.86
2023-05-07T05:02:11.269Z,62.64
2023-05-07T05:04:39.695Z,62.77
2023-05-07T05:07:10.000Z,62.82
2023-05-07T05:09:39.016Z,62.92
2023-05-07T05:12:07.621Z,63.35
2023-05-07T05:14:37.069Z,63.81
2023-05-07T05:17:06.184Z,64.30
2023-05-07T05:19:35.302Z,64.57
2023-05-07T05:22:06.294Z,64.84
2023-05-07T05:24:35.768Z,64.96
2023-05-07T05:27:04.544Z,65.12
2023-05-07T05:29:33.072Z,65.12
2023-05-07T05:32:02.901Z,65.20
2023-05-07T05:34:31.572Z,64.92
2023-05-07T05:37:00.817Z,64.46
2023-05-07T05:39:28.998Z,64.27
2023-05-07T05:41:57.950Z,63.90
2023-05-07T05:44:27.424Z,63.63
2023-05-07T05:46:56.393Z,63.19
2023-05-07T05:49:25.080Z,62.93
2023-05-07T05:51:54.021Z,62.99
2023-05-07T05:54:22.782Z,62.97
2023-05-07T05:56:51.183Z,62.89
2023-05-07T05:59:20.048Z,63.10
2023-05-07T06:01:48.337Z,63.01
2023-05-07T06:04:17.391Z,62.83
2023-05-07T06:06:47.302Z,62.72
2023-05-07T06:09:17.454Z,62.75
2023-05-07T06:11:47.455Z,62.72
2023-05-07T06:14:16.194Z,62.70
2023-05-07T06:16:45.367Z,62.82
2023-05-07T06:19:14.607Z,63.17
2023-05-07T06:21:43.542Z,64.14
2023-05-07T06:24:12.075Z,64.42
2023-05-07T06:26:41.270Z,64.75
2023-05-07T06:29:09.422Z,65.17
2023-05-07T06:31:38.305Z,65.22
2023-05-07T06:34:06.951Z,65.31
2023-05-07T06:36:36.261Z,65.34
2023-05-07T06:39:05.134Z,65.46
2023-05-07T06:41:34.501Z,65.65
2023-05-07T06:44:04.759Z,66.10
2023-05-07T06:46:33.391Z,66.79
2023-05-07T06:49:01.946Z,67.03
2023-05-07T06:51:30.588Z,67.35
2023-05-07T06:53:58.769Z,68.16
2023-05-07T06:56:27.567Z,70.20
2023-05-07T06:58:55.696Z,71.25
2023-05-07T07:01:25.280Z,72.91
2023-05-07T07:03:54.150Z,72.67
2023-05-07T07:06:22.753Z,72.77
2023-05-07T07:08:51.517Z,72.84
2023-05-07T07:11:19.978Z,73.11
2023-05-07T07:13:48.613Z,73.32
2023-05-07T07:16:18.296Z,73.47
2023-05-07T07:18:46.960Z,73.65
2023-05-07T07:21:15.304Z,73.84
2023-05-07T07:23:43.891Z,73.99
2023-05-07T07:26:12.470Z,74.23
2023-05-07T07:28:48.216Z,74.21
2023-05-07T07:31:16.712Z,74.35
2023-05-07T07:33:45.430Z,74.42
2023-05-07T07:36:13.872Z,74.37
2023-05-07T07:38:42.386Z,74.39
2023-05-07T07:41:10.437Z,74.47
2023-05-07T07:43:39.029Z,74.49
2023-05-07T07:46:07.798Z,74.47
2023-05-07T07:48:36.884Z,74.51
2023-05-07T07:51:05.631Z,74.67
2023-05-07T07:53:35.339Z,74.46
2023-05-07T07:56:05.843Z,74.59
2023-05-07T07:58:35.271Z,74.61
2023-05-07T08:01:04.039Z,74.80
2023-05-07T08:03:32.878Z,74.77
2023-05-07T08:06:01.205Z,74.77
2023-05-07T08:08:31.838Z,74.80
2023-05-07T08:11:01.019Z,74.63
2023-05-07T08:13:29.384Z,74.61
2023-05-07T08:15:58.347Z,74.46
2023-05-07T08:18:28.253Z,74.57
2023-05-07T08:20:58.095Z,74.51
2023-05-07T08:23:31.479Z,74.50
2023-05-07T08:26:00.416Z,74.46
2023-05-07T08:28:28.738Z,74.44
2023-05-07T08:30:56.899Z,74.46
2023-05-07T08:33:25.087Z,74.40
2023-05-07T08:35:53.890Z,74.41
2023-05-07T08:38:21.890Z,74.30
2023-05-07T08:40:51.358Z,74.31
2023-05-07T08:43:20.786Z,74.18
2023-05-07T08:45:54.628Z,74.17
2023-05-07T08:48:26.732Z,73.91
2023-05-07T08:50:55.267Z,74.05
2023-05-07T08:53:24.928Z,74.17
2023-05-07T08:55:54.640Z,73.96
2023-05-07T08:58:23.405Z,73.99
2023-05-07T09:00:54.001Z,74.01
2023-05-07T09:03:23.958Z,73.97
2023-05-07T09:05:52.679Z,73.92
2023-05-07T09:08:28.355Z,73.34
2023-05-07T09:10:59.136Z,73.13
2023-05-07T09:13:29.330Z,73.09
2023-05-07T09:15:58.106Z,73.21
2023-05-07T09:18:30.210Z,73.25
2023-05-07T09:20:58.771Z,73.19
2023-05-07T09:23:28.016Z,73.12
2023-05-07T09:26:02.543Z,72.96
2023-05-07T09:28:30.793Z,72.83
2023-05-07T09:30:59.696Z,72.48
2023-05-07T09:33:29.775Z,72.19
2023-05-07T09:35:58.293Z,72.29
2023-05-07T09:38:26.945Z,72.11
2023-05-07T09:41:07.870Z,71.81
2023-05-07T09:43:38.247Z,71.37
2023-05-07T09:46:16.817Z,70.61
2023-05-07T09:48:46.977Z,70.21
2023-05-07T09:51:52.280Z,70.19
2023-05-07T09:54:20.606Z,69.65
2023-05-07T09:56:54.528Z,69.17
2023-05-07T09:59:23.794Z,69.10
2023-05-07T10:01:57.868Z,67.85
2023-05-07T10:04:27.231Z,67.12
2023-05-07T10:06:55.905Z,66.77
2023-05-07T10:09:25.013Z,65.86
2023-05-07T10:11:53.681Z,65.42
2023-05-07T10:14:22.723Z,65.05
2023-05-07T10:16:54.792Z,65.06
2023-05-07T10:19:23.887Z,64.78
2023-05-07T10:21:57.826Z,64.85
2023-05-07T10:24:31.913Z,64.91
2023-05-07T10:27:01.955Z,64.30
2023-05-07T10:29:55.341Z,64.20
2023-05-07T10:32:55.158Z,64.21
2023-05-07T10:35:30.930Z,63.79
2023-05-07T10:37:59.588Z,63.62
2023-05-07T10:40:27.864Z,63.52
2023-05-07T10:43:00.700Z,63.22
2023-05-07T10:45:30.045Z,62.94
2023-05-07T10:50:49.139Z,62.19
2023-05-07T10:53:25.366Z,61.93
2023-05-07T10:56:19.255Z,61.43
2023-05-07T10:58:47.314Z,59.43
2023-05-07T11:01:15.573Z,59.91
2023-05-07T11:04:14.075Z,59.74
2023-05-07T11:06:42.481Z,57.81
2023-05-07T11:09:11.457Z,58.59
2023-05-07T11:11:48.198Z,58.41
2023-05-07T11:14:42.409Z,57.78
2023-05-07T11:17:13.875Z,56.81
2023-05-07T11:19:56.957Z,57.09
2023-05-07T11:22:38.784Z,56.59
2023-05-07T11:25:07.969Z,55.81
2023-05-07T11:27:37.047Z,55.62
2023-05-07T11:30:05.751Z,55.58
2023-05-07T11:32:34.975Z,55.12
2023-05-07T11:35:03.873Z,54.80
2023-05-07T11:37:31.999Z,54.75
2023-05-07T11:40:07.877Z,52.99
2023-05-07T11:42:39.165Z,52.61
2023-05-07T11:45:08.698Z,51.97
2023-05-07T11:47:36.814Z,52.01
2023-05-07T11:50:09.511Z,51.89
2023-05-07T11:52:37.789Z,51.73
2023-05-07T11:55:09.425Z,51.01
2023-05-07T11:57:37.673Z,50.72
2023-05-07T12:00:08.529Z,50.27
2023-05-07T12:02:36.773Z,49.51
2023-05-07T12:05:06.283Z,49.50
2023-05-07T12:07:35.649Z,49.67
2023-05-07T12:10:08.331Z,49.73
2023-05-07T12:12:40.378Z,49.55
2023-05-07T12:15:10.310Z,49.12
2023-05-07T12:17:39.337Z,48.91
2023-05-07T12:20:10.703Z,49.08
2023-05-07T12:22:39.249Z,48.49
2023-05-07T12:25:08.388Z,48.33
2023-05-07T12:27:40.315Z,47.89
2023-05-07T12:30:11.874Z,47.86
2023-05-07T12:32:40.765Z,48.02
2023-05-07T12:35:11.408Z,47.97
2023-05-07T12:37:39.717Z,48.01
2023-05-07T12:40:11.936Z,48.16
2023-05-07T12:42:41.800Z,48.80
2023-05-07T12:45:15.026Z,49.25
2023-05-07T12:47:47.766Z,49.20
2023-05-07T12:50:17.446Z,49.29
2023-05-07T12:52:49.034Z,49.59
2023-05-07T12:55:18.629Z,49.83
2023-05-07T12:57:49.824Z,50.29
2023-05-07T13:00:19.440Z,50.48
2023-05-07T13:02:48.333Z,50.51
2023-05-07T13:05:16.520Z,49.94
2023-05-07T13:07:58.251Z,49.50
2023-05-07T13:10:29.349Z,49.39
2023-05-07T13:12:58.386Z,48.99
2023-05-07T13:15:26.917Z,49.36
2023-05-07T13:17:55.187Z,49.73
2023-05-07T13:20:23.604Z,49.95
2023-05-07T13:22:52.212Z,49.79
2023-05-07T13:25:20.377Z,50.07
2023-05-07T13:27:56.493Z,50.12
2023-05-07T13:30:31.725Z,50.43
2023-05-07T13:33:00.585Z,50.47
2023-05-07T13:35:29.290Z,50.90
2023-05-07T13:37:58.527Z,50.89
2023-05-07T13:40:26.888Z,50.86
2023-05-07T13:42:57.972Z,50.84
2023-05-07T13:45:26.728Z,50.44
2023-05-07T13:47:55.459Z,50.34
2023-05-07T13:50:23.872Z,50.61
2023-05-07T13:52:52.138Z,50.23
2023-05-07T13:55:21.787Z,49.58
2023-05-07T13:57:59.420Z,49.35
2023-05-07T14:00:28.755Z,49.09
2023-05-07T14:02:57.786Z,49.00
2023-05-07T14:05:26.394Z,48.72
2023-05-07T14:07:56.682Z,48.84
2023-05-07T14:10:25.843Z,48.68
2023-05-07T14:12:54.444Z,48.70
2023-05-07T14:15:22.685Z,48.56
2023-05-07T14:17:51.169Z,48.37
2023-05-07T14:20:19.288Z,47.91
2023-05-07T14:22:47.369Z,48.02
2023-05-07T14:25:15.787Z,48.00
2023-05-07T14:27:44.472Z,48.18
2023-05-07T14:30:12.805Z,48.68
2023-05-07T14:32:42.173Z,48.95
2023-05-07T14:35:11.082Z,48.95
2023-05-07T14:37:39.530Z,48.18
2023-05-07T14:40:08.476Z,47.75
2023-05-07T14:42:36.748Z,47.87
2023-05-07T14:45:05.380Z,47.81
2023-05-07T14:47:33.528Z,47.43
2023-05-07T14:50:02.325Z,46.90
2023-05-07T14:52:30.572Z,47.04
2023-05-07T14:54:58.766Z,46.87
2023-05-07T14:57:27.931Z,47.04
2023-05-07T14:59:56.309Z,46.87
2023-05-07T15:02:24.572Z,46.08
2023-05-07T15:04:53.580Z,46.36
2023-05-07T15:07:22.464Z,46.39
2023-05-07T15:09:51.050Z,46.10
2023-05-07T15:12:20.771Z,46.18
2023-05-07T15:14:49.083Z,46.07
2023-05-07T15:17:17.244Z,46.37
2023-05-07T15:19:45.968Z,46.08
2023-05-07T15:22:15.561Z,45.49
2023-05-07T15:24:43.769Z,45.73
2023-05-07T15:27:12.391Z,46.49
2023-05-07T15:29:40.450Z,46.80
2023-05-07T15:32:09.861Z,46.99
2023-05-07T15:34:38.780Z,47.18
2023-05-07T15:37:06.933Z,47.04
2023-05-07T15:39:35.204Z,47.36
2023-05-07T15:42:06.692Z,47.66
2023-05-07T15:44:35.929Z,47.69
2023-05-07T15:47:04.793Z,47.87
2023-05-07T15:49:33.764Z,47.84
2023-05-07T15:52:02.416Z,48.24
2023-05-07T15:54:30.828Z,48.01
2023-05-07T15:56:59.298Z,47.81
2023-05-07T15:59:28.117Z,47.84
2023-05-07T16:01:56.652Z,47.91
2023-05-07T16:04:26.923Z,47.19
2023-05-07T16:06:55.468Z,47.27
2023-05-07T16:09:23.599Z,46.77
2023-05-07T16:11:54.041Z,46.83
2023-05-07T16:14:22.832Z,47.38
2023-05-07T16:16:52.883Z,47.86
2023-05-07T16:19:22.807Z,48.17
2023-05-07T16:21:51.733Z,48.51
2023-05-07T16:24:20.491Z,49.07
2023-05-07T16:26:49.060Z,49.52
2023-05-07T16:29:17.139Z,49.99
2023-05-07T16:31:45.365Z,50.81
2023-05-07T16:34:14.212Z,51.52
2023-05-07T16:36:43.208Z,52.26
2023-05-07T16:39:11.842Z,52.49
2023-05-07T16:41:40.618Z,52.54
2023-05-07T16:44:09.202Z,53.24
2023-05-07T16:46:38.150Z,53.59
2023-05-07T16:49:07.208Z,53.40
2023-05-07T16:51:35.803Z,53.52
2023-05-07T16:54:04.150Z,53.63
2023-05-07T16:56:32.846Z,54.06
2023-05-07T16:59:02.229Z,54.50
2023-05-07T17:01:30.463Z,54.44
2023-05-07T17:03:59.348Z,54.58
2023-05-07T17:06:28.103Z,54.40
2023-05-07T17:08:56.979Z,54.29
2023-05-07T17:11:25.361Z,54.23
2023-05-07T17:13:53.832Z,54.01
2023-05-07T17:16:22.689Z,54.07
2023-05-07T17:18:51.326Z,53.57
2023-05-07T17:21:20.530Z,53.04
2023-05-07T17:23:49.511Z,53.11
2023-05-07T17:26:19.111Z,53.41
2023-05-07T17:28:48.468Z,53.52
2023-05-07T17:31:17.080Z,53.31
2023-05-07T17:33:46.810Z,53.56
2023-05-07T17:36:16.228Z,53.52
2023-05-07T17:38:44.999Z,53.30
2023-05-07T17:41:14.409Z,52.91
2023-05-07T17:43:42.706Z,53.04
2023-05-07T17:46:10.915Z,52.72
2023-05-07T17:48:40.192Z,52.94
2023-05-07T17:51:10.092Z,53.08
2023-05-07T17:53:39.738Z,53.15
2023-05-07T17:56:08.493Z,52.86
2023-05-07T17:58:42.753Z,52.83
2023-05-07T18:01:23.026Z,52.88
2023-05-07T18:03:51.956Z,52.95
2023-05-07T18:06:20.667Z,52.76
2023-05-07T18:08:49.969Z,52.82
2023-05-07T18:11:19.824Z,52.93
2023-05-07T18:13:48.321Z,53.11
2023-05-07T18:16:16.478Z,53.36
2023-05-07T18:18:44.765Z,53.37
2023-05-07T18:21:13.332Z,53.35
2023-05-07T18:23:42.248Z,53.42
2023-05-07T18:26:10.821Z,53.50
2023-05-07T18:28:38.840Z,53.64
2023-05-07T18:31:07.767Z,53.79
2023-05-07T18:33:36.116Z,54.03
2023-05-07T18:36:04.393Z,54.08
2023-05-07T18:38:33.270Z,53.83
2023-05-07T18:41:05.242Z,54.03
2023-05-07T18:43:34.365Z,54.11
2023-05-07T18:46:02.550Z,54.01
2023-05-07T18:48:32.385Z,53.96
2023-05-07T18:51:01.424Z,54.17
2023-05-07T18:53:29.504Z,54.30
2023-05-07T18:55:58.109Z,54.24
2023-05-07T18:58:26.444Z,54.08
2023-05-07T19:00:55.517Z,54.26
2023-05-07T19:03:23.643Z,54.50
2023-05-07T19:05:52.760Z,54.58
2023-05-07T19:08:20.833Z,54.54
2023-05-07T19:10:48.878Z,54.60
2023-05-07T19:13:17.526Z,54.59
2023-05-07T19:15:46.417Z,54.60
2023-05-07T19:18:14.533Z,54.74
2023-05-07T19:20:43.104Z,54.76
2023-05-07T19:23:11.252Z,54.79
2023-05-07T19:25:39.555Z,54.91
2023-05-07T19:28:07.642Z,54.95
2023-05-07T19:30:38.923Z,54.96
2023-05-07T19:33:07.923Z,55.02
2023-05-07T19:35:36.740Z,55.12
2023-05-07T19:38:05.023Z,55.18
2023-05-07T19:40:33.906Z,55.16
2023-05-07T19:43:03.928Z,55.23
2023-05-07T19:45:31.981Z,55.03
2023-05-07T19:48:00.957Z,54.89
2023-05-07T19:50:29.148Z,55.07
2023-05-07T19:52:57.189Z,55.13
2023-05-07T19:55:25.806Z,55.29
2023-05-07T19:57:54.084Z,55.48
2023-05-07T20:00:22.549Z,55.75
2023-05-07T20:02:52.127Z,56.09
2023-05-07T20:05:20.931Z,56.18
2023-05-07T20:07:49.153Z,56.41
2023-05-07T20:10:17.941Z,56.58
2023-05-07T20:12:46.543Z,56.81
2023-05-07T20:15:14.688Z,56.87
2023-05-07T20:17:43.124Z,57.10
2023-05-07T20:20:12.043Z,57.26
2023-05-07T20:22:40.330Z,57.43
2023-05-07T20:25:10.425Z,57.55
2023-05-07T20:27:38.499Z,57.74
2023-05-07T20:30:08.769Z,57.71
2023-05-07T20:32:37.402Z,58.11
2023-05-07T20:35:06.037Z,58.06
2023-05-07T20:37:34.424Z,58.16
2023-05-07T20:40:03.463Z,58.30
2023-05-07T20:42:31.552Z,58.33
2023-05-07T20:45:02.159Z,58.49
2023-05-07T20:47:33.225Z,58.62
2023-05-07T20:50:01.600Z,58.57
2023-05-07T20:52:30.226Z,58.59
2023-05-07T20:54:58.888Z,58.63
2023-05-07T20:57:27.058Z,58.67
2023-05-07T20:59:55.263Z,58.66
2023-05-07T21:02:23.716Z,58.56
2023-05-07T21:04:52.549Z,58.66
2023-05-07T21:07:20.746Z,58.54
2023-05-07T21:09:49.395Z,58.45
2023-05-07T21:12:17.485Z,58.44
2023-05-07T21:14:45.731Z,58.34
2023-05-07T21:17:13.875Z,58.22
2023-05-07T21:19:42.215Z,57.92
2023-05-07T21:22:10.551Z,57.85
2023-05-07T21:24:39.327Z,57.89
2023-05-07T21:27:07.589Z,58.01
2023-05-07T21:29:36.200Z,57.98
2023-05-07T21:32:06.571Z,58.20
2023-05-07T21:34:36.025Z,58.20
2023-05-07T21:37:10.651Z,58.27
2023-05-07T21:39:59.476Z,58.37
2023-05-07T21:42:27.838Z,58.40
2023-05-07T21:44:56.172Z,58.38
2023-05-07T21:47:24.714Z,58.45
2023-05-07T21:49:52.904Z,58.39
2023-05-07T21:52:21.030Z,58.49
2023-05-07T21:54:52.748Z,58.57
2023-05-07T21:57:21.237Z,58.52
2023-05-07T21:59:49.274Z,58.41
2023-05-07T22:02:17.822Z,58.48
2023-05-07T22:04:45.959Z,58.59
2023-05-07T22:07:14.142Z,58.48
2023-05-07T22:09:42.287Z,58.36
2023-05-07T22:12:10.953Z,58.28
2023-05-07T22:14:39.680Z,58.19
2023-05-07T22:17:08.038Z,58.19
2023-05-07T22:19:36.343Z,58.07
2023-05-07T22:22:04.557Z,57.96
2023-05-07T22:24:33.355Z,58.03
2023-05-07T22:27:01.477Z,57.88
2023-05-07T22:29:29.556Z,57.63
2023-05-07T22:31:57.815Z,57.46
2023-05-07T22:34:25.919Z,57.45
2023-05-07T22:36:54.158Z,57.44
2023-05-07T22:39:22.477Z,57.27
2023-05-07T22:41:54.162Z,57.23
2023-05-07T22:44:22.394Z,57.13
2023-05-07T22:46:50.614Z,57.08
2023-05-07T22:49:18.973Z,57.04
2023-05-07T22:51:50.500Z,57.02
2023-05-07T22:54:18.831Z,56.96
2023-05-07T22:56:47.565Z,57.02
2023-05-07T22:59:16.913Z,56.96
2023-05-07T23:01:47.442Z,56.86
2023-05-07T23:04:15.870Z,56.85
2023-05-07T23:06:44.089Z,56.81
2023-05-07T23:09:12.407Z,56.89
2023-05-07T23:11:40.853Z,56.92
2023-05-07T23:14:09.561Z,57.01
2023-05-07T23:16:37.790Z,57.02
2023-05-07T23:19:05.932Z,57.23
2023-05-07T23:21:34.163Z,57.27
2023-05-07T23:24:02.428Z,57.43
2023-05-07T23:26:31.163Z,57.71
2023-05-07T23:28:59.902Z,57.85
2023-05-07T23:31:28.659Z,57.96
2023-05-07T23:33:56.854Z,57.97
2023-05-07T23:36:25.603Z,58.10
2023-05-07T23:38:54.258Z,58.30
2023-05-07T23:41:22.549Z,58.35
2023-05-07T23:43:50.716Z,58.39
2023-05-07T23:46:18.919Z,58.53
2023-05-07T23:48:47.058Z,58.73
2023-05-07T23:51:15.304Z,58.81
2023-05-07T23:53:43.393Z,58.90
2023-05-07T23:56:11.573Z,59.01
2023-05-07T23:58:39.880Z,59.17
